sensor_id;sensor_type;location;lat;lon;timestamp;pressure;altitude;pressure_sealevel;temperature;humidity
7157;BME280;3620;49.862;8.758;2022-11-15T00:01:56;98915.75;;;13.82;89.23
7157;BME280;3620;49.862;8.758;2022-11-15T00:04:22;98915.91;;;13.79;89.42
7157;BME280;3620;49.862;8.758;2022-11-15T00:06:50;98910.47;;;13.68;88.55
7157;BME280;3620;49.862;8.758;2022-11-15T00:09:17;98913.97;;;13.68;89.20
7157;BME280;3620;49.862;8.758;2022-11-15T00:11:43;98917.47;;;13.55;88.91
7157;BME280;3620;49.862;8.758;2022-11-15T00:14:10;98916.72;;;13.53;89.13
7157;BME280;3620;49.862;8.758;2022-11-15T00:16:36;98918.50;;;13.52;89.94
7157;BME280;3620;49.862;8.758;2022-11-15T00:19:03;98921.03;;;13.54;89.77
7157;BME280;3620;49.862;8.758;2022-11-15T00:21:29;98921.31;;;13.49;89.03
7157;BME280;3620;49.862;8.758;2022-11-15T00:23:58;98927.66;;;13.47;90.09
7157;BME280;3620;49.862;8.758;2022-11-15T00:26:24;98920.84;;;13.43;89.24
7157;BME280;3620;49.862;8.758;2022-11-15T00:28:51;98917.06;;;13.47;90.09
7157;BME280;3620;49.862;8.758;2022-11-15T00:31:18;98921.44;;;13.48;89.64
7157;BME280;3620;49.862;8.758;2022-11-15T00:33:45;98916.16;;;13.48;90.33
7157;BME280;3620;49.862;8.758;2022-11-15T00:36:12;98923.78;;;13.52;90.07
7157;BME280;3620;49.862;8.758;2022-11-15T00:38:39;98918.63;;;13.51;90.69
7157;BME280;3620;49.862;8.758;2022-11-15T00:41:07;98916.78;;;13.51;90.77
7157;BME280;3620;49.862;8.758;2022-11-15T00:43:35;98922.94;;;13.52;91.29
7157;BME280;3620;49.862;8.758;2022-11-15T00:46:01;98917.38;;;13.56;91.12
7157;BME280;3620;49.862;8.758;2022-11-15T00:48:28;98921.03;;;13.54;90.09
7157;BME280;3620;49.862;8.758;2022-11-15T00:50:56;98922.75;;;13.55;90.66
7157;BME280;3620;49.862;8.758;2022-11-15T00:53:23;98915.75;;;13.54;89.97
7157;BME280;3620;49.862;8.758;2022-11-15T00:55:50;98906.31;;;13.64;90.20
7157;BME280;3620;49.862;8.758;2022-11-15T00:58:18;98897.81;;;13.59;90.75
7157;BME280;3620;49.862;8.758;2022-11-15T01:00:44;98902.38;;;13.57;90.41
7157;BME280;3620;49.862;8.758;2022-11-15T01:03:11;98901.78;;;13.52;91.00
7157;BME280;3620;49.862;8.758;2022-11-15T01:05:38;98903.50;;;13.53;91.51
7157;BME280;3620;49.862;8.758;2022-11-15T01:08:04;98897.38;;;13.52;90.89
7157;BME280;3620;49.862;8.758;2022-11-15T01:10:31;98908.31;;;13.46;90.08
7157;BME280;3620;49.862;8.758;2022-11-15T01:12:57;98903.97;;;13.31;90.61
7157;BME280;3620;49.862;8.758;2022-11-15T01:15:25;98903.16;;;13.31;90.33
7157;BME280;3620;49.862;8.758;2022-11-15T01:17:52;98895.97;;;13.33;90.40
7157;BME280;3620;49.862;8.758;2022-11-15T01:20:18;98889.34;;;13.26;90.07
7157;BME280;3620;49.862;8.758;2022-11-15T01:22:45;98893.03;;;13.23;89.91
7157;BME280;3620;49.862;8.758;2022-11-15T01:25:12;98884.81;;;13.13;91.19
7157;BME280;3620;49.862;8.758;2022-11-15T01:27:38;98891.16;;;13.11;91.81
7157;BME280;3620;49.862;8.758;2022-11-15T01:30:06;98897.47;;;13.08;91.80
7157;BME280;3620;49.862;8.758;2022-11-15T01:32:34;98883.50;;;13.06;91.95
7157;BME280;3620;49.862;8.758;2022-11-15T01:35:01;98880.78;;;13.08;92.40
7157;BME280;3620;49.862;8.758;2022-11-15T01:37:28;98887.44;;;12.99;92.05
7157;BME280;3620;49.862;8.758;2022-11-15T01:39:54;98893.00;;;12.95;92.36
7157;BME280;3620;49.862;8.758;2022-11-15T01:42:21;98887.59;;;12.96;92.38
7157;BME280;3620;49.862;8.758;2022-11-15T01:44:49;98879.88;;;12.93;92.08
7157;BME280;3620;49.862;8.758;2022-11-15T01:47:17;98879.50;;;12.85;92.26
7157;BME280;3620;49.862;8.758;2022-11-15T01:49:51;98883.56;;;12.91;92.75
7157;BME280;3620;49.862;8.758;2022-11-15T01:52:22;98882.41;;;12.81;92.79
7157;BME280;3620;49.862;8.758;2022-11-15T01:54:53;98879.09;;;12.77;93.18
7157;BME280;3620;49.862;8.758;2022-11-15T01:57:20;98886.19;;;12.77;93.54
7157;BME280;3620;49.862;8.758;2022-11-15T01:59:47;98882.03;;;12.73;93.25
7157;BME280;3620;49.862;8.758;2022-11-15T02:02:14;98881.91;;;12.74;93.42
7157;BME280;3620;49.862;8.758;2022-11-15T02:04:42;98873.84;;;12.77;93.74
7157;BME280;3620;49.862;8.758;2022-11-15T02:07:11;98866.94;;;12.75;94.40
7157;BME280;3620;49.862;8.758;2022-11-15T02:09:40;98867.59;;;12.78;94.65
7157;BME280;3620;49.862;8.758;2022-11-15T02:12:09;98867.41;;;12.81;94.56
7157;BME280;3620;49.862;8.758;2022-11-15T02:14:38;98866.88;;;12.90;94.47
7157;BME280;3620;49.862;8.758;2022-11-15T02:17:21;98862.25;;;12.94;93.79
7157;BME280;3620;49.862;8.758;2022-11-15T02:23:15;98850.28;;;12.88;93.93
7157;BME280;3620;49.862;8.758;2022-11-15T02:25:57;98837.94;;;12.89;94.52
7157;BME280;3620;49.862;8.758;2022-11-15T02:28:55;98840.47;;;12.90;93.30
7157;BME280;3620;49.862;8.758;2022-11-15T02:31:29;98837.25;;;12.85;93.61
7157;BME280;3620;49.862;8.758;2022-11-15T02:34:05;98831.50;;;12.79;93.69
7157;BME280;3620;49.862;8.758;2022-11-15T02:36:41;98816.31;;;12.82;94.05
7157;BME280;3620;49.862;8.758;2022-11-15T02:39:15;98829.69;;;12.65;94.43
7157;BME280;3620;49.862;8.758;2022-11-15T02:41:50;98824.50;;;12.64;94.83
7157;BME280;3620;49.862;8.758;2022-11-15T02:44:24;98821.66;;;12.52;95.24
7157;BME280;3620;49.862;8.758;2022-11-15T02:46:55;98815.97;;;12.44;95.95
7157;BME280;3620;49.862;8.758;2022-11-15T02:49:45;98811.56;;;12.45;95.73
7157;BME280;3620;49.862;8.758;2022-11-15T02:52:14;98811.94;;;12.39;96.00
7157;BME280;3620;49.862;8.758;2022-11-15T02:54:42;98809.84;;;12.30;96.41
7157;BME280;3620;49.862;8.758;2022-11-15T02:57:13;98812.84;;;12.24;96.74
7157;BME280;3620;49.862;8.758;2022-11-15T03:00:06;98801.19;;;12.28;96.26
7157;BME280;3620;49.862;8.758;2022-11-15T03:02:56;98806.72;;;12.23;96.04
7157;BME280;3620;49.862;8.758;2022-11-15T03:05:34;98806.41;;;12.14;96.73
7157;BME280;3620;49.862;8.758;2022-11-15T03:08:07;98802.19;;;11.96;97.29
7157;BME280;3620;49.862;8.758;2022-11-15T03:10:42;98799.66;;;11.94;97.70
7157;BME280;3620;49.862;8.758;2022-11-15T03:13:27;98799.00;;;11.91;97.91
7157;BME280;3620;49.862;8.758;2022-11-15T03:16:02;98787.75;;;11.87;98.18
7157;BME280;3620;49.862;8.758;2022-11-15T03:18:32;98792.00;;;11.90;97.96
7157;BME280;3620;49.862;8.758;2022-11-15T03:21:04;98788.44;;;11.91;97.79
7157;BME280;3620;49.862;8.758;2022-11-15T03:23:32;98783.19;;;11.91;97.95
7157;BME280;3620;49.862;8.758;2022-11-15T03:26:00;98786.38;;;11.96;97.93
7157;BME280;3620;49.862;8.758;2022-11-15T03:28:32;98779.91;;;12.01;97.40
7157;BME280;3620;49.862;8.758;2022-11-15T03:31:01;98789.81;;;11.98;96.88
7157;BME280;3620;49.862;8.758;2022-11-15T03:33:51;98784.16;;;12.04;96.96
7157;BME280;3620;49.862;8.758;2022-11-15T03:36:22;98785.09;;;12.03;97.39
7157;BME280;3620;49.862;8.758;2022-11-15T03:38:50;98788.91;;;12.13;96.76
7157;BME280;3620;49.862;8.758;2022-11-15T03:41:23;98786.25;;;12.13;96.54
7157;BME280;3620;49.862;8.758;2022-11-15T03:43:53;98787.66;;;12.18;96.48
7157;BME280;3620;49.862;8.758;2022-11-15T03:46:25;98784.59;;;12.26;95.96
7157;BME280;3620;49.862;8.758;2022-11-15T03:49:05;98789.66;;;12.29;95.31
7157;BME280;3620;49.862;8.758;2022-11-15T03:51:33;98786.28;;;12.27;95.25
7157;BME280;3620;49.862;8.758;2022-11-15T03:54:02;98788.16;;;12.25;95.49
7157;BME280;3620;49.862;8.758;2022-11-15T03:56:29;98785.34;;;12.28;95.35
7157;BME280;3620;49.862;8.758;2022-11-15T03:58:56;98792.88;;;12.34;95.24
7157;BME280;3620;49.862;8.758;2022-11-15T04:01:22;98789.13;;;12.38;95.50
7157;BME280;3620;49.862;8.758;2022-11-15T04:03:49;98789.31;;;12.35;95.06
7157;BME280;3620;49.862;8.758;2022-11-15T04:06:17;98786.91;;;12.46;94.86
7157;BME280;3620;49.862;8.758;2022-11-15T04:08:43;98795.81;;;12.29;96.01
7157;BME280;3620;49.862;8.758;2022-11-15T04:11:10;98801.25;;;11.97;97.58
7157;BME280;3620;49.862;8.758;2022-11-15T04:13:36;98794.25;;;11.82;98.90
7157;BME280;3620;49.862;8.758;2022-11-15T04:16:03;98796.13;;;11.80;99.99
7157;BME280;3620;49.862;8.758;2022-11-15T04:18:30;98788.81;;;11.69;100.00
7157;BME280;3620;49.862;8.758;2022-11-15T04:20:56;98791.88;;;11.61;100.00
7157;BME280;3620;49.862;8.758;2022-11-15T04:23:42;98789.03;;;11.64;100.00
7157;BME280;3620;49.862;8.758;2022-11-15T04:26:26;98790.88;;;11.48;100.00
7157;BME280;3620;49.862;8.758;2022-11-15T04:28:53;98794.59;;;11.44;100.00
7157;BME280;3620;49.862;8.758;2022-11-15T04:31:37;98789.50;;;11.41;100.00
7157;BME280;3620;49.862;8.758;2022-11-15T04:34:04;98780.31;;;11.48;100.00
7157;BME280;3620;49.862;8.758;2022-11-15T04:36:30;98785.41;;;11.51;100.00
7157;BME280;3620;49.862;8.758;2022-11-15T04:39:15;98781.69;;;11.55;100.00
7157;BME280;3620;49.862;8.758;2022-11-15T04:41:42;98776.41;;;11.55;100.00
7157;BME280;3620;49.862;8.758;2022-11-15T04:44:09;98777.94;;;11.59;100.00
7157;BME280;3620;49.862;8.758;2022-11-15T04:46:35;98774.34;;;11.60;100.00
7157;BME280;3620;49.862;8.758;2022-11-15T04:49:02;98776.22;;;11.58;100.00
7157;BME280;3620;49.862;8.758;2022-11-15T04:51:28;98773.94;;;11.52;100.00
7157;BME280;3620;49.862;8.758;2022-11-15T04:53:55;98770.44;;;11.52;100.00
7157;BME280;3620;49.862;8.758;2022-11-15T04:56:23;98772.47;;;11.62;100.00
7157;BME280;3620;49.862;8.758;2022-11-15T04:58:50;98773.09;;;11.67;100.00
7157;BME280;3620;49.862;8.758;2022-11-15T05:01:16;98777.09;;;11.74;100.00
7157;BME280;3620;49.862;8.758;2022-11-15T05:03:44;98778.44;;;11.82;100.00
7157;BME280;3620;49.862;8.758;2022-11-15T05:06:37;98769.41;;;11.86;100.00
7157;BME280;3620;49.862;8.758;2022-11-15T05:09:03;98776.53;;;11.99;100.00
7157;BME280;3620;49.862;8.758;2022-11-15T05:11:31;98779.69;;;12.20;100.00
7157;BME280;3620;49.862;8.758;2022-11-15T05:13:58;98775.38;;;12.33;100.00
7157;BME280;3620;49.862;8.758;2022-11-15T05:16:25;98768.03;;;12.38;100.00
7157;BME280;3620;49.862;8.758;2022-11-15T05:18:52;98766.13;;;12.40;100.00
7157;BME280;3620;49.862;8.758;2022-11-15T05:21:19;98765.22;;;12.41;100.00
7157;BME280;3620;49.862;8.758;2022-11-15T05:23:46;98765.72;;;12.62;100.00
7157;BME280;3620;49.862;8.758;2022-11-15T05:26:15;98756.28;;;12.72;100.00
7157;BME280;3620;49.862;8.758;2022-11-15T05:28:44;98765.34;;;12.82;100.00
7157;BME280;3620;49.862;8.758;2022-11-15T05:31:12;98769.94;;;12.78;98.50
7157;BME280;3620;49.862;8.758;2022-11-15T05:33:40;98771.44;;;12.54;100.00
7157;BME280;3620;49.862;8.758;2022-11-15T05:36:13;98756.78;;;12.06;100.00
7157;BME280;3620;49.862;8.758;2022-11-15T05:38:43;98752.69;;;12.01;100.00
7157;BME280;3620;49.862;8.758;2022-11-15T05:41:10;98758.38;;;12.09;100.00
7157;BME280;3620;49.862;8.758;2022-11-15T05:43:39;98748.59;;;12.11;100.00
7157;BME280;3620;49.862;8.758;2022-11-15T05:46:08;98753.31;;;12.20;100.00
7157;BME280;3620;49.862;8.758;2022-11-15T05:48:36;98757.84;;;12.32;100.00
7157;BME280;3620;49.862;8.758;2022-11-15T05:51:04;98754.09;;;12.36;100.00
7157;BME280;3620;49.862;8.758;2022-11-15T05:53:34;98752.03;;;12.41;100.00
7157;BME280;3620;49.862;8.758;2022-11-15T05:56:00;98728.47;;;12.52;100.00
7157;BME280;3620;49.862;8.758;2022-11-15T05:58:27;98734.41;;;12.56;100.00
7157;BME280;3620;49.862;8.758;2022-11-15T06:00:54;98732.44;;;12.59;100.00
7157;BME280;3620;49.862;8.758;2022-11-15T06:03:22;98737.13;;;12.54;100.00
7157;BME280;3620;49.862;8.758;2022-11-15T06:05:49;98733.09;;;12.63;100.00
7157;BME280;3620;49.862;8.758;2022-11-15T06:08:15;98725.25;;;12.89;100.00
7157;BME280;3620;49.862;8.758;2022-11-15T06:10:42;98732.50;;;13.14;100.00
7157;BME280;3620;49.862;8.758;2022-11-15T06:13:08;98733.53;;;13.11;100.00
7157;BME280;3620;49.862;8.758;2022-11-15T06:15:35;98733.34;;;13.14;100.00
7157;BME280;3620;49.862;8.758;2022-11-15T06:18:02;98743.22;;;13.25;100.00
7157;BME280;3620;49.862;8.758;2022-11-15T06:20:30;98746.31;;;13.32;100.00
7157;BME280;3620;49.862;8.758;2022-11-15T06:22:57;98746.31;;;13.32;100.00
7157;BME280;3620;49.862;8.758;2022-11-15T06:25:24;98747.88;;;13.21;100.00
7157;BME280;3620;49.862;8.758;2022-11-15T06:27:51;98756.25;;;13.28;100.00
7157;BME280;3620;49.862;8.758;2022-11-15T06:30:18;98758.78;;;13.30;100.00
7157;BME280;3620;49.862;8.758;2022-11-15T06:32:45;98753.50;;;13.30;100.00
7157;BME280;3620;49.862;8.758;2022-11-15T06:35:11;98755.84;;;13.34;100.00
7157;BME280;3620;49.862;8.758;2022-11-15T06:37:39;98752.00;;;13.26;100.00
7157;BME280;3620;49.862;8.758;2022-11-15T06:40:07;98750.28;;;13.24;100.00
7157;BME280;3620;49.862;8.758;2022-11-15T06:42:34;98741.44;;;13.26;100.00
7157;BME280;3620;49.862;8.758;2022-11-15T06:45:01;98743.97;;;13.27;100.00
7157;BME280;3620;49.862;8.758;2022-11-15T06:47:28;98750.28;;;13.24;100.00
7157;BME280;3620;49.862;8.758;2022-11-15T06:49:55;98748.16;;;13.17;100.00
7157;BME280;3620;49.862;8.758;2022-11-15T06:52:21;98757.28;;;13.26;100.00
7157;BME280;3620;49.862;8.758;2022-11-15T06:54:49;98755.69;;;13.23;100.00
7157;BME280;3620;49.862;8.758;2022-11-15T06:57:15;98754.31;;;13.17;100.00
7157;BME280;3620;49.862;8.758;2022-11-15T06:59:42;98757.69;;;13.19;100.00
7157;BME280;3620;49.862;8.758;2022-11-15T07:02:12;98752.78;;;13.13;100.00
7157;BME280;3620;49.862;8.758;2022-11-15T07:04:39;98755.41;;;13.13;100.00
7157;BME280;3620;49.862;8.758;2022-11-15T07:07:06;98755.53;;;13.12;100.00
7157;BME280;3620;49.862;8.758;2022-11-15T07:09:32;98756.38;;;13.12;100.00
7157;BME280;3620;49.862;8.758;2022-11-15T07:12:00;98758.06;;;13.13;100.00
7157;BME280;3620;49.862;8.758;2022-11-15T07:14:27;98757.41;;;13.10;100.00
7157;BME280;3620;49.862;8.758;2022-11-15T07:16:53;98749.59;;;13.08;100.00
7157;BME280;3620;49.862;8.758;2022-11-15T07:19:20;98760.69;;;12.99;100.00
7157;BME280;3620;49.862;8.758;2022-11-15T07:21:46;98750.31;;;12.96;100.00
7157;BME280;3620;49.862;8.758;2022-11-15T07:24:13;98753.31;;;13.04;100.00
7157;BME280;3620;49.862;8.758;2022-11-15T07:26:39;98747.69;;;13.10;99.61
7157;BME280;3620;49.862;8.758;2022-11-15T07:29:07;98758.44;;;13.07;100.00
7157;BME280;3620;49.862;8.758;2022-11-15T07:31:34;98766.94;;;13.12;100.00
7157;BME280;3620;49.862;8.758;2022-11-15T07:34:01;98759.59;;;13.17;100.00
7157;BME280;3620;49.862;8.758;2022-11-15T07:36:27;98764.06;;;13.30;100.00
7157;BME280;3620;49.862;8.758;2022-11-15T07:38:54;98749.94;;;13.31;99.33
7157;BME280;3620;49.862;8.758;2022-11-15T07:41:20;98757.63;;;13.34;99.74
7157;BME280;3620;49.862;8.758;2022-11-15T07:43:47;98754.81;;;13.37;99.21
7157;BME280;3620;49.862;8.758;2022-11-15T07:46:18;98765.94;;;13.42;99.23
7157;BME280;3620;49.862;8.758;2022-11-15T07:48:45;98762.16;;;13.46;98.67
7157;BME280;3620;49.862;8.758;2022-11-15T07:51:12;98757.59;;;13.48;99.25
7157;BME280;3620;49.862;8.758;2022-11-15T07:53:39;98761.00;;;13.50;98.87
7157;BME280;3620;49.862;8.758;2022-11-15T07:56:06;98755.59;;;13.51;98.23
7157;BME280;3620;49.862;8.758;2022-11-15T07:58:33;98760.81;;;13.53;97.81
7157;BME280;3620;49.862;8.758;2022-11-15T08:01:02;98757.00;;;13.57;98.17
7157;BME280;3620;49.862;8.758;2022-11-15T08:03:31;98753.22;;;13.61;97.50
7157;BME280;3620;49.862;8.758;2022-11-15T08:05:58;98746.78;;;13.65;97.69
7157;BME280;3620;49.862;8.758;2022-11-15T08:08:25;98757.16;;;13.68;96.77
7157;BME280;3620;49.862;8.758;2022-11-15T08:10:52;98756.97;;;13.71;96.98
7157;BME280;3620;49.862;8.758;2022-11-15T08:13:18;98761.09;;;13.75;96.24
7157;BME280;3620;49.862;8.758;2022-11-15T08:15:45;98750.31;;;13.78;96.81
7157;BME280;3620;49.862;8.758;2022-11-15T08:18:13;98755.22;;;13.84;96.75
7157;BME280;3620;49.862;8.758;2022-11-15T08:20:42;98756.69;;;13.88;96.44
7157;BME280;3620;49.862;8.758;2022-11-15T08:23:10;98757.13;;;13.94;96.42
7157;BME280;3620;49.862;8.758;2022-11-15T08:25:37;98751.22;;;14.04;96.12
7157;BME280;3620;49.862;8.758;2022-11-15T08:28:06;98751.78;;;14.09;95.74
7157;BME280;3620;49.862;8.758;2022-11-15T08:30:36;98746.38;;;14.10;96.77
7157;BME280;3620;49.862;8.758;2022-11-15T08:33:10;98743.84;;;14.21;96.68
7157;BME280;3620;49.862;8.758;2022-11-15T08:35:37;98738.06;;;14.29;96.51
7157;BME280;3620;49.862;8.758;2022-11-15T08:38:04;98739.66;;;14.31;95.93
7157;BME280;3620;49.862;8.758;2022-11-15T08:40:31;98737.34;;;14.39;95.68
7157;BME280;3620;49.862;8.758;2022-11-15T08:42:57;98737.13;;;14.42;95.39
7157;BME280;3620;49.862;8.758;2022-11-15T08:45:27;98731.81;;;14.42;96.27
7157;BME280;3620;49.862;8.758;2022-11-15T08:47:54;98741.16;;;14.35;96.42
7157;BME280;3620;49.862;8.758;2022-11-15T08:50:20;98738.50;;;14.35;96.96
7157;BME280;3620;49.862;8.758;2022-11-15T08:52:47;98737.13;;;14.42;97.24
7157;BME280;3620;49.862;8.758;2022-11-15T08:55:15;98739.69;;;14.44;96.84
7157;BME280;3620;49.862;8.758;2022-11-15T08:57:42;98740.09;;;14.50;96.22
7157;BME280;3620;49.862;8.758;2022-11-15T09:00:10;98731.41;;;14.48;96.84
7157;BME280;3620;49.862;8.758;2022-11-15T09:02:37;98727.16;;;14.58;97.01
7157;BME280;3620;49.862;8.758;2022-11-15T09:05:05;98729.19;;;14.55;96.74
7157;BME280;3620;49.862;8.758;2022-11-15T09:07:32;98733.63;;;14.54;96.52
7157;BME280;3620;49.862;8.758;2022-11-15T09:09:58;98739.22;;;14.62;95.25
7157;BME280;3620;49.862;8.758;2022-11-15T09:12:26;98733.53;;;14.68;95.15
7157;BME280;3620;49.862;8.758;2022-11-15T09:14:53;98730.31;;;14.76;95.36
7157;BME280;3620;49.862;8.758;2022-11-15T09:17:19;98728.63;;;14.88;93.82
7157;BME280;3620;49.862;8.758;2022-11-15T09:19:46;98726.66;;;15.02;94.93
7157;BME280;3620;49.862;8.758;2022-11-15T09:22:12;98720.97;;;14.96;94.84
7157;BME280;3620;49.862;8.758;2022-11-15T09:24:39;98722.38;;;14.89;95.24
7157;BME280;3620;49.862;8.758;2022-11-15T09:27:05;98724.72;;;14.93;96.40
7157;BME280;3620;49.862;8.758;2022-11-15T09:29:33;98729.66;;;14.98;97.03
7157;BME280;3620;49.862;8.758;2022-11-15T09:32:00;98718.41;;;15.07;96.82
7157;BME280;3620;49.862;8.758;2022-11-15T09:34:26;98725.47;;;15.19;97.12
7157;BME280;3620;49.862;8.758;2022-11-15T09:36:53;98710.53;;;15.18;97.65
7157;BME280;3620;49.862;8.758;2022-11-15T09:39:19;98715.41;;;15.24;96.17
7157;BME280;3620;49.862;8.758;2022-11-15T09:41:57;98715.41;;;15.24;96.54
7157;BME280;3620;49.862;8.758;2022-11-15T09:44:41;98711.28;;;15.20;96.33
7157;BME280;3620;49.862;8.758;2022-11-15T09:47:28;98715.81;;;15.18;95.74
7157;BME280;3620;49.862;8.758;2022-11-15T09:50:00;98715.81;;;15.18;96.95
7157;BME280;3620;49.862;8.758;2022-11-15T09:52:27;98719.97;;;15.22;97.25
7157;BME280;3620;49.862;8.758;2022-11-15T09:54:54;98719.50;;;15.28;97.23
7157;BME280;3620;49.862;8.758;2022-11-15T09:57:24;98714.72;;;15.33;97.74
7157;BME280;3620;49.862;8.758;2022-11-15T10:00:04;98703.78;;;15.37;98.43
7157;BME280;3620;49.862;8.758;2022-11-15T10:02:46;98710.25;;;15.46;98.42
7157;BME280;3620;49.862;8.758;2022-11-15T10:05:18;98711.72;;;15.50;98.64
7157;BME280;3620;49.862;8.758;2022-11-15T10:07:50;98701.00;;;15.52;99.07
7157;BME280;3620;49.862;8.758;2022-11-15T10:10:25;98706.94;;;15.55;99.11
7157;BME280;3620;49.862;8.758;2022-11-15T10:12:53;98703.09;;;15.59;99.34
7157;BME280;3620;49.862;8.758;2022-11-15T10:15:21;98702.75;;;15.64;99.23
7157;BME280;3620;49.862;8.758;2022-11-15T10:18:02;98699.75;;;15.68;99.36
7157;BME280;3620;49.862;8.758;2022-11-15T10:20:37;98692.53;;;15.70;99.56
7157;BME280;3620;49.862;8.758;2022-11-15T10:23:06;98695.69;;;15.75;99.28
7157;BME280;3620;49.862;8.758;2022-11-15T10:25:36;98684.84;;;15.78;99.32
7157;BME280;3620;49.862;8.758;2022-11-15T10:28:10;98681.75;;;15.84;99.16
7157;BME280;3620;49.862;8.758;2022-11-15T10:30:41;98679.81;;;15.86;98.44
7157;BME280;3620;49.862;8.758;2022-11-15T10:33:13;98675.25;;;15.88;98.34
7157;BME280;3620;49.862;8.758;2022-11-15T10:35:43;98678.13;;;15.96;97.13
7157;BME280;3620;49.862;8.758;2022-11-15T10:38:11;98669.22;;;15.97;95.45
7157;BME280;3620;49.862;8.758;2022-11-15T10:40:39;98669.69;;;15.91;95.03
7157;BME280;3620;49.862;8.758;2022-11-15T10:43:15;98667.16;;;15.90;93.53
7157;BME280;3620;49.862;8.758;2022-11-15T10:45:44;98668.69;;;15.81;91.32
7157;BME280;3620;49.862;8.758;2022-11-15T10:48:23;98659.47;;;15.63;91.69
7157;BME280;3620;49.862;8.758;2022-11-15T10:50:50;98658.22;;;15.56;91.67
7157;BME280;3620;49.862;8.758;2022-11-15T10:53:23;98661.56;;;15.47;92.87
7157;BME280;3620;49.862;8.758;2022-11-15T10:55:52;98648.09;;;15.50;92.78
7157;BME280;3620;49.862;8.758;2022-11-15T10:58:31;98648.09;;;15.50;92.61
7157;BME280;3620;49.862;8.758;2022-11-15T11:01:09;98650.00;;;15.48;93.29
7157;BME280;3620;49.862;8.758;2022-11-15T11:03:37;98641.47;;;15.56;94.25
7157;BME280;3620;49.862;8.758;2022-11-15T11:06:07;98636.56;;;15.62;93.66
7157;BME280;3620;49.862;8.758;2022-11-15T11:08:34;98635.09;;;15.58;93.31
7157;BME280;3620;49.862;8.758;2022-11-15T11:11:03;98623.03;;;15.54;93.09
7157;BME280;3620;49.862;8.758;2022-11-15T11:13:32;98629.56;;;15.61;93.50
7157;BME280;3620;49.862;8.758;2022-11-15T11:16:43;98620.19;;;15.68;94.80
7157;BME280;3620;49.862;8.758;2022-11-15T11:19:26;98618.78;;;15.75;92.33
7157;BME280;3620;49.862;8.758;2022-11-15T11:22:01;98609.03;;;15.87;92.81
7157;BME280;3620;49.862;8.758;2022-11-15T11:24:34;98610.63;;;16.00;92.09
7157;BME280;3620;49.862;8.758;2022-11-15T11:27:22;98609.53;;;16.03;92.19
7157;BME280;3620;49.862;8.758;2022-11-15T11:30:06;98600.72;;;16.02;92.05
7157;BME280;3620;49.862;8.758;2022-11-15T11:32:46;98600.16;;;16.10;91.29
7157;BME280;3620;49.862;8.758;2022-11-15T11:35:20;98594.47;;;16.03;90.14
7157;BME280;3620;49.862;8.758;2022-11-15T11:37:51;98588.53;;;16.00;90.54
7157;BME280;3620;49.862;8.758;2022-11-15T11:40:27;98584.94;;;16.01;90.82
7157;BME280;3620;49.862;8.758;2022-11-15T11:42:59;98581.69;;;16.08;90.45
7157;BME280;3620;49.862;8.758;2022-11-15T11:45:50;98575.41;;;16.21;89.64
7157;BME280;3620;49.862;8.758;2022-11-15T11:48:37;98573.84;;;16.29;88.13
7157;BME280;3620;49.862;8.758;2022-11-15T11:51:13;98576.13;;;16.45;88.20
7157;BME280;3620;49.862;8.758;2022-11-15T11:53:46;98571.53;;;16.58;87.92
7157;BME280;3620;49.862;8.758;2022-11-15T11:56:21;98564.31;;;16.71;87.72
7157;BME280;3620;49.862;8.758;2022-11-15T11:58:50;98559.50;;;16.54;84.78
7157;BME280;3620;49.862;8.758;2022-11-15T12:01:23;98546.47;;;16.29;84.60
7157;BME280;3620;49.862;8.758;2022-11-15T12:03:56;98542.59;;;16.33;84.44
7157;BME280;3620;49.862;8.758;2022-11-15T12:06:31;98550.56;;;16.44;84.30
7157;BME280;3620;49.862;8.758;2022-11-15T12:09:03;98549.59;;;16.56;84.66
7157;BME280;3620;49.862;8.758;2022-11-15T12:11:41;98547.19;;;16.64;83.91
7157;BME280;3620;49.862;8.758;2022-11-15T12:14:12;98542.13;;;16.17;82.14
7157;BME280;3620;49.862;8.758;2022-11-15T12:16:43;98533.22;;;16.18;82.84
7157;BME280;3620;49.862;8.758;2022-11-15T12:19:11;98538.25;;;15.98;82.69
7157;BME280;3620;49.862;8.758;2022-11-15T12:21:42;98529.94;;;16.14;83.36
7157;BME280;3620;49.862;8.758;2022-11-15T12:24:15;98527.91;;;16.18;82.34
7157;BME280;3620;49.862;8.758;2022-11-15T12:26:50;98518.00;;;16.31;82.89
7157;BME280;3620;49.862;8.758;2022-11-15T12:29:24;98512.19;;;16.37;81.64
7157;BME280;3620;49.862;8.758;2022-11-15T12:31:54;98507.63;;;16.28;80.30
7157;BME280;3620;49.862;8.758;2022-11-15T12:34:44;98499.88;;;16.36;81.21
7157;BME280;3620;49.862;8.758;2022-11-15T12:37:34;98499.13;;;16.45;81.67
7157;BME280;3620;49.862;8.758;2022-11-15T12:40:17;98502.50;;;16.47;81.17
7157;BME280;3620;49.862;8.758;2022-11-15T12:45:39;98495.53;;;16.35;80.17
7157;BME280;3620;49.862;8.758;2022-11-15T12:54:54;98491.44;;;16.53;80.78
7157;BME280;3620;49.862;8.758;2022-11-15T12:57:38;98495.53;;;16.57;81.27
7157;BME280;3620;49.862;8.758;2022-11-15T13:03:21;98499.09;;;16.67;80.53
7157;BME280;3620;49.862;8.758;2022-11-15T13:06:08;98494.31;;;16.61;80.20
7157;BME280;3620;49.862;8.758;2022-11-15T13:08:44;98485.22;;;16.74;79.46
7157;BME280;3620;49.862;8.758;2022-11-15T13:11:44;98485.88;;;16.88;79.37
7157;BME280;3620;49.862;8.758;2022-11-15T13:14:46;98482.31;;;16.98;80.85
7157;BME280;3620;49.862;8.758;2022-11-15T13:17:32;98476.25;;;17.07;81.17
7157;BME280;3620;49.862;8.758;2022-11-15T13:20:30;98477.28;;;17.16;81.78
7157;BME280;3620;49.862;8.758;2022-11-15T13:23:07;98463.41;;;17.12;80.76
7157;BME280;3620;49.862;8.758;2022-11-15T13:26:05;98460.06;;;17.10;80.52
7157;BME280;3620;49.862;8.758;2022-11-15T13:28:37;98466.06;;;17.12;81.00
7157;BME280;3620;49.862;8.758;2022-11-15T13:31:19;98458.09;;;17.12;81.28
7157;BME280;3620;49.862;8.758;2022-11-15T13:33:47;98454.50;;;17.13;81.18
7157;BME280;3620;49.862;8.758;2022-11-15T13:36:15;98450.13;;;17.12;81.10
7157;BME280;3620;49.862;8.758;2022-11-15T13:38:42;98447.34;;;17.14;81.08
7157;BME280;3620;49.862;8.758;2022-11-15T13:41:18;98440.91;;;17.16;81.78
7157;BME280;3620;49.862;8.758;2022-11-15T13:43:46;98431.00;;;17.18;81.64
7157;BME280;3620;49.862;8.758;2022-11-15T13:46:16;98425.69;;;17.18;81.43
7157;BME280;3620;49.862;8.758;2022-11-15T13:48:44;98423.88;;;17.19;81.47
7157;BME280;3620;49.862;8.758;2022-11-15T13:51:17;98419.47;;;17.08;81.58
7157;BME280;3620;49.862;8.758;2022-11-15T13:53:46;98432.31;;;17.03;81.74
7157;BME280;3620;49.862;8.758;2022-11-15T13:56:17;98419.25;;;17.00;82.00